sensor_id;sensor_type;location;lat;lon;timestamp;P1;durP1;ratioP1;P2;durP2;ratioP2
35646;SDS011;28680;45.642;13.756;2023-02-11T00:18:31;14.02;;;6.80;;
35646;SDS011;28680;45.642;13.756;2023-02-11T00:20:57;11.27;;;6.40;;
35646;SDS011;28680;45.642;13.756;2023-02-11T00:23:23;12.93;;;6.68;;
35646;SDS011;28680;45.642;13.756;2023-02-11T00:32:01;12.18;;;6.53;;
35646;SDS011;28680;45.642;13.756;2023-02-11T00:37:41;15.63;;;7.00;;
35646;SDS011;28680;45.642;13.756;2023-02-11T00:40:10;12.18;;;6.15;;
35646;SDS011;28680;45.642;13.756;2023-02-11T00:42:36;10.90;;;6.22;;
35646;SDS011;28680;45.642;13.756;2023-02-11T00:45:02;11.27;;;6.45;;
35646;SDS011;28680;45.642;13.756;2023-02-11T00:47:28;17.55;;;7.03;;
35646;SDS011;28680;45.642;13.756;2023-02-11T00:49:54;14.23;;;6.30;;
35646;SDS011;28680;45.642;13.756;2023-02-11T00:52:20;13.65;;;6.72;;
35646;SDS011;28680;45.642;13.756;2023-02-11T00:54:46;14.30;;;7.18;;
35646;SDS011;28680;45.642;13.756;2023-02-11T00:57:12;13.20;;;6.78;;
35646;SDS011;28680;45.642;13.756;2023-02-11T00:59:38;12.82;;;6.70;;
35646;SDS011;28680;45.642;13.756;2023-02-11T01:02:04;16.13;;;6.72;;
35646;SDS011;28680;45.642;13.756;2023-02-11T01:04:30;10.70;;;6.43;;
35646;SDS011;28680;45.642;13.756;2023-02-11T01:07:33;12.02;;;7.05;;
35646;SDS011;28680;45.642;13.756;2023-02-11T01:09:59;11.77;;;6.22;;
35646;SDS011;28680;45.642;13.756;2023-02-11T01:12:25;11.45;;;6.28;;
35646;SDS011;28680;45.642;13.756;2023-02-11T01:14:51;13.20;;;6.30;;
35646;SDS011;28680;45.642;13.756;2023-02-11T01:17:17;12.35;;;6.30;;
35646;SDS011;28680;45.642;13.756;2023-02-11T01:19:42;13.75;;;6.60;;
35646;SDS011;28680;45.642;13.756;2023-02-11T01:22:08;11.07;;;6.28;;
35646;SDS011;28680;45.642;13.756;2023-02-11T01:24:34;12.75;;;7.03;;
35646;SDS011;28680;45.642;13.756;2023-02-11T01:27:00;12.05;;;7.30;;
35646;SDS011;28680;45.642;13.756;2023-02-11T01:29:26;13.88;;;6.50;;
35646;SDS011;28680;45.642;13.756;2023-02-11T01:31:52;14.30;;;6.93;;
35646;SDS011;28680;45.642;13.756;2023-02-11T01:34:18;12.13;;;6.43;;
35646;SDS011;28680;45.642;13.756;2023-02-11T01:36:44;12.55;;;6.45;;
35646;SDS011;28680;45.642;13.756;2023-02-11T01:39:10;13.52;;;6.53;;
35646;SDS011;28680;45.642;13.756;2023-02-11T01:41:35;10.18;;;5.95;;
35646;SDS011;28680;45.642;13.756;2023-02-11T01:46:46;10.55;;;6.50;;
35646;SDS011;28680;45.642;13.756;2023-02-11T01:49:16;10.68;;;6.38;;
35646;SDS011;28680;45.642;13.756;2023-02-11T01:54:23;15.55;;;7.00;;
35646;SDS011;28680;45.642;13.756;2023-02-11T01:57:14;12.27;;;6.68;;
35646;SDS011;28680;45.642;13.756;2023-02-11T02:05:29;12.80;;;6.63;;
35646;SDS011;28680;45.642;13.756;2023-02-11T02:14:30;14.27;;;7.28;;
35646;SDS011;28680;45.642;13.756;2023-02-11T02:16:56;13.50;;;7.18;;
35646;SDS011;28680;45.642;13.756;2023-02-11T02:37:18;13.00;;;6.78;;
35646;SDS011;28680;45.642;13.756;2023-02-11T02:39:54;13.90;;;6.80;;
35646;SDS011;28680;45.642;13.756;2023-02-11T02:42:23;12.95;;;6.65;;
35646;SDS011;28680;45.642;13.756;2023-02-11T02:44:50;11.13;;;6.50;;
35646;SDS011;28680;45.642;13.756;2023-02-11T02:47:19;12.38;;;6.30;;
35646;SDS011;28680;45.642;13.756;2023-02-11T02:49:45;12.27;;;6.28;;
35646;SDS011;28680;45.642;13.756;2023-02-11T02:52:16;12.57;;;6.65;;
35646;SDS011;28680;45.642;13.756;2023-02-11T03:09:28;13.13;;;6.03;;
35646;SDS011;28680;45.642;13.756;2023-02-11T03:12:09;11.50;;;5.80;;
35646;SDS011;28680;45.642;13.756;2023-02-11T03:14:37;10.57;;;5.85;;
35646;SDS011;28680;45.642;13.756;2023-02-11T03:17:06;10.70;;;5.70;;
35646;SDS011;28680;45.642;13.756;2023-02-11T03:19:38;10.40;;;5.50;;
35646;SDS011;28680;45.642;13.756;2023-02-11T03:22:10;11.18;;;5.47;;
35646;SDS011;28680;45.642;13.756;2023-02-11T03:24:49;10.23;;;5.80;;
35646;SDS011;28680;45.642;13.756;2023-02-11T03:32:38;11.43;;;5.97;;
35646;SDS011;28680;45.642;13.756;2023-02-11T03:35:52;12.60;;;6.15;;
35646;SDS011;28680;45.642;13.756;2023-02-11T03:38:25;12.40;;;5.30;;
35646;SDS011;28680;45.642;13.756;2023-02-11T03:40:57;11.75;;;6.30;;
35646;SDS011;28680;45.642;13.756;2023-02-11T03:43:27;12.05;;;6.22;;
35646;SDS011;28680;45.642;13.756;2023-02-11T03:45:57;10.88;;;5.60;;
35646;SDS011;28680;45.642;13.756;2023-02-11T03:48:25;12.60;;;6.00;;
35646;SDS011;28680;45.642;13.756;2023-02-11T03:50:57;12.25;;;6.18;;
35646;SDS011;28680;45.642;13.756;2023-02-11T03:53:26;13.90;;;6.75;;
35646;SDS011;28680;45.642;13.756;2023-02-11T03:55:53;13.95;;;7.00;;
35646;SDS011;28680;45.642;13.756;2023-02-11T03:58:20;13.88;;;6.35;;
35646;SDS011;28680;45.642;13.756;2023-02-11T04:00:46;16.65;;;6.00;;
35646;SDS011;28680;45.642;13.756;2023-02-11T04:03:12;14.60;;;5.90;;
35646;SDS011;28680;45.642;13.756;2023-02-11T04:05:39;14.35;;;6.90;;
35646;SDS011;28680;45.642;13.756;2023-02-11T04:08:05;15.07;;;6.50;;
35646;SDS011;28680;45.642;13.756;2023-02-11T04:10:31;12.05;;;6.10;;
35646;SDS011;28680;45.642;13.756;2023-02-11T04:12:57;11.70;;;5.68;;
35646;SDS011;28680;45.642;13.756;2023-02-11T04:15:23;12.02;;;5.85;;
35646;SDS011;28680;45.642;13.756;2023-02-11T04:17:49;14.25;;;6.85;;
35646;SDS011;28680;45.642;13.756;2023-02-11T04:20:15;13.85;;;6.50;;
35646;SDS011;28680;45.642;13.756;2023-02-11T04:22:41;11.15;;;6.20;;
35646;SDS011;28680;45.642;13.756;2023-02-11T04:25:07;15.70;;;6.55;;
35646;SDS011;28680;45.642;13.756;2023-02-11T04:27:34;11.23;;;6.15;;
35646;SDS011;28680;45.642;13.756;2023-02-11T04:30:01;12.05;;;5.80;;
35646;SDS011;28680;45.642;13.756;2023-02-11T04:32:28;13.57;;;6.03;;
35646;SDS011;28680;45.642;13.756;2023-02-11T04:34:53;14.93;;;7.25;;
35646;SDS011;28680;45.642;13.756;2023-02-11T04:37:19;12.63;;;6.07;;
35646;SDS011;28680;45.642;13.756;2023-02-11T04:39:46;11.05;;;6.30;;
35646;SDS011;28680;45.642;13.756;2023-02-11T04:42:11;12.85;;;6.30;;
35646;SDS011;28680;45.642;13.756;2023-02-11T04:44:37;12.35;;;6.03;;
35646;SDS011;28680;45.642;13.756;2023-02-11T04:47:03;11.93;;;5.90;;
35646;SDS011;28680;45.642;13.756;2023-02-11T04:49:29;15.05;;;6.15;;
35646;SDS011;28680;45.642;13.756;2023-02-11T04:51:55;11.88;;;6.05;;
35646;SDS011;28680;45.642;13.756;2023-02-11T04:54:21;10.25;;;5.93;;
35646;SDS011;28680;45.642;13.756;2023-02-11T04:56:47;11.35;;;6.75;;
35646;SDS011;28680;45.642;13.756;2023-02-11T04:59:13;12.90;;;6.35;;
35646;SDS011;28680;45.642;13.756;2023-02-11T05:01:39;11.68;;;6.53;;
35646;SDS011;28680;45.642;13.756;2023-02-11T05:04:06;12.70;;;6.65;;
35646;SDS011;28680;45.642;13.756;2023-02-11T05:06:31;13.82;;;6.40;;
35646;SDS011;28680;45.642;13.756;2023-02-11T05:08:57;11.90;;;5.90;;
35646;SDS011;28680;45.642;13.756;2023-02-11T05:11:23;13.07;;;6.90;;
35646;SDS011;28680;45.642;13.756;2023-02-11T05:13:53;12.50;;;6.25;;
35646;SDS011;28680;45.642;13.756;2023-02-11T05:16:19;12.25;;;6.28;;
35646;SDS011;28680;45.642;13.756;2023-02-11T05:18:45;15.00;;;6.68;;
35646;SDS011;28680;45.642;13.756;2023-02-11T05:21:12;11.85;;;6.40;;
35646;SDS011;28680;45.642;13.756;2023-02-11T05:23:41;10.52;;;5.78;;
35646;SDS011;28680;45.642;13.756;2023-02-11T05:26:07;11.15;;;5.95;;
35646;SDS011;28680;45.642;13.756;2023-02-11T05:28:34;12.50;;;5.90;;
35646;SDS011;28680;45.642;13.756;2023-02-11T05:31:00;11.25;;;6.22;;
35646;SDS011;28680;45.642;13.756;2023-02-11T05:33:26;12.52;;;5.82;;
35646;SDS011;28680;45.642;13.756;2023-02-11T05:35:59;12.00;;;5.68;;
35646;SDS011;28680;45.642;13.756;2023-02-11T05:38:28;11.02;;;6.03;;
35646;SDS011;28680;45.642;13.756;2023-02-11T05:40:54;9.80;;;5.55;;
35646;SDS011;28680;45.642;13.756;2023-02-11T05:43:20;10.65;;;5.82;;
35646;SDS011;28680;45.642;13.756;2023-02-11T05:45:47;12.50;;;6.18;;
35646;SDS011;28680;45.642;13.756;2023-02-11T05:48:13;8.68;;;5.20;;
35646;SDS011;28680;45.642;13.756;2023-02-11T05:50:39;10.40;;;5.57;;
35646;SDS011;28680;45.642;13.756;2023-02-11T05:53:05;10.35;;;5.30;;
35646;SDS011;28680;45.642;13.756;2023-02-11T05:55:32;10.50;;;5.43;;
35646;SDS011;28680;45.642;13.756;2023-02-11T05:57:58;11.20;;;4.88;;
35646;SDS011;28680;45.642;13.756;2023-02-11T06:00:24;11.88;;;5.68;;
35646;SDS011;28680;45.642;13.756;2023-02-11T06:02:50;10.73;;;5.40;;
35646;SDS011;28680;45.642;13.756;2023-02-11T06:05:16;13.13;;;6.53;;
35646;SDS011;28680;45.642;13.756;2023-02-11T06:07:42;10.02;;;5.22;;
35646;SDS011;28680;45.642;13.756;2023-02-11T06:10:08;10.30;;;5.35;;
35646;SDS011;28680;45.642;13.756;2023-02-11T06:12:35;38.63;;;7.35;;
35646;SDS011;28680;45.642;13.756;2023-02-11T06:15:02;11.70;;;6.00;;
35646;SDS011;28680;45.642;13.756;2023-02-11T06:17:30;15.38;;;6.38;;
35646;SDS011;28680;45.642;13.756;2023-02-11T06:19:57;13.13;;;5.53;;
35646;SDS011;28680;45.642;13.756;2023-02-11T06:22:25;13.88;;;5.95;;
35646;SDS011;28680;45.642;13.756;2023-02-11T06:24:51;15.93;;;6.85;;
35646;SDS011;28680;45.642;13.756;2023-02-11T06:27:18;12.40;;;5.70;;
35646;SDS011;28680;45.642;13.756;2023-02-11T06:29:44;13.20;;;6.10;;
35646;SDS011;28680;45.642;13.756;2023-02-11T06:32:11;12.80;;;6.45;;
35646;SDS011;28680;45.642;13.756;2023-02-11T06:34:37;12.70;;;6.50;;
35646;SDS011;28680;45.642;13.756;2023-02-11T06:37:04;11.30;;;5.90;;
35646;SDS011;28680;45.642;13.756;2023-02-11T06:39:30;16.60;;;6.60;;
35646;SDS011;28680;45.642;13.756;2023-02-11T06:41:56;13.10;;;6.55;;
35646;SDS011;28680;45.642;13.756;2023-02-11T06:44:22;15.65;;;7.28;;
35646;SDS011;28680;45.642;13.756;2023-02-11T06:46:48;14.90;;;7.10;;
35646;SDS011;28680;45.642;13.756;2023-02-11T06:49:14;12.65;;;5.90;;
35646;SDS011;28680;45.642;13.756;2023-02-11T06:51:39;13.38;;;6.50;;
35646;SDS011;28680;45.642;13.756;2023-02-11T06:54:05;18.88;;;8.15;;
35646;SDS011;28680;45.642;13.756;2023-02-11T06:56:32;15.70;;;7.15;;
35646;SDS011;28680;45.642;13.756;2023-02-11T06:58:59;12.73;;;6.30;;
35646;SDS011;28680;45.642;13.756;2023-02-11T07:01:25;15.05;;;7.00;;
35646;SDS011;28680;45.642;13.756;2023-02-11T07:03:52;15.23;;;6.88;;
35646;SDS011;28680;45.642;13.756;2023-02-11T07:06:22;13.68;;;6.00;;
35646;SDS011;28680;45.642;13.756;2023-02-11T07:08:52;16.27;;;7.50;;
35646;SDS011;28680;45.642;13.756;2023-02-11T07:11:21;13.23;;;6.43;;
35646;SDS011;28680;45.642;13.756;2023-02-11T07:13:49;13.35;;;6.60;;
35646;SDS011;28680;45.642;13.756;2023-02-11T07:16:17;17.35;;;6.85;;
35646;SDS011;28680;45.642;13.756;2023-02-11T07:18:44;18.13;;;6.95;;
35646;SDS011;28680;45.642;13.756;2023-02-11T07:21:12;15.07;;;6.72;;
35646;SDS011;28680;45.642;13.756;2023-02-11T07:23:41;13.52;;;7.00;;
35646;SDS011;28680;45.642;13.756;2023-02-11T07:26:09;18.50;;;8.02;;
35646;SDS011;28680;45.642;13.756;2023-02-11T07:28:38;18.25;;;7.55;;
35646;SDS011;28680;45.642;13.756;2023-02-11T07:31:09;13.30;;;6.95;;
35646;SDS011;28680;45.642;13.756;2023-02-11T07:33:40;14.55;;;6.70;;
35646;SDS011;28680;45.642;13.756;2023-02-11T07:36:06;16.73;;;6.68;;
35646;SDS011;28680;45.642;13.756;2023-02-11T07:38:34;16.75;;;7.25;;
35646;SDS011;28680;45.642;13.756;2023-02-11T07:41:02;15.00;;;7.13;;
35646;SDS011;28680;45.642;13.756;2023-02-11T07:43:33;14.27;;;7.38;;
35646;SDS011;28680;45.642;13.756;2023-02-11T07:46:04;12.70;;;7.18;;
35646;SDS011;28680;45.642;13.756;2023-02-11T07:48:32;17.23;;;7.60;;
35646;SDS011;28680;45.642;13.756;2023-02-11T07:51:05;16.08;;;7.80;;
35646;SDS011;28680;45.642;13.756;2023-02-11T07:53:38;13.27;;;7.28;;
35646;SDS011;28680;45.642;13.756;2023-02-11T07:56:05;13.02;;;7.38;;
35646;SDS011;28680;45.642;13.756;2023-02-11T07:58:32;10.93;;;6.43;;
35646;SDS011;28680;45.642;13.756;2023-02-11T08:00:59;16.20;;;7.97;;
35646;SDS011;28680;45.642;13.756;2023-02-11T08:03:44;16.02;;;8.68;;
35646;SDS011;28680;45.642;13.756;2023-02-11T08:06:10;14.30;;;7.18;;
35646;SDS011;28680;45.642;13.756;2023-02-11T08:08:40;15.38;;;7.63;;
35646;SDS011;28680;45.642;13.756;2023-02-11T08:11:07;15.60;;;8.50;;
35646;SDS011;28680;45.642;13.756;2023-02-11T08:13:37;15.88;;;7.63;;
35646;SDS011;28680;45.642;13.756;2023-02-11T08:16:04;15.45;;;8.35;;
35646;SDS011;28680;45.642;13.756;2023-02-11T08:18:31;15.10;;;7.28;;
35646;SDS011;28680;45.642;13.756;2023-02-11T08:21:04;16.48;;;7.57;;
35646;SDS011;28680;45.642;13.756;2023-02-11T08:23:32;15.18;;;7.60;;
35646;SDS011;28680;45.642;13.756;2023-02-11T08:26:01;13.50;;;7.47;;
35646;SDS011;28680;45.642;13.756;2023-02-11T08:28:28;14.10;;;7.82;;
35646;SDS011;28680;45.642;13.756;2023-02-11T08:30:55;14.57;;;6.78;;
35646;SDS011;28680;45.642;13.756;2023-02-11T08:33:22;12.57;;;6.82;;
35646;SDS011;28680;45.642;13.756;2023-02-11T08:35:48;15.98;;;7.43;;
35646;SDS011;28680;45.642;13.756;2023-02-11T08:38:14;15.80;;;7.50;;
35646;SDS011;28680;45.642;13.756;2023-02-11T08:40:39;17.02;;;7.93;;
35646;SDS011;28680;45.642;13.756;2023-02-11T08:43:05;13.85;;;7.88;;
35646;SDS011;28680;45.642;13.756;2023-02-11T08:45:32;11.80;;;6.70;;
35646;SDS011;28680;45.642;13.756;2023-02-11T08:47:58;10.50;;;6.38;;
35646;SDS011;28680;45.642;13.756;2023-02-11T08:50:24;10.60;;;6.38;;
35646;SDS011;28680;45.642;13.756;2023-02-11T08:52:52;11.48;;;7.25;;
35646;SDS011;28680;45.642;13.756;2023-02-11T08:55:18;12.95;;;6.40;;
35646;SDS011;28680;45.642;13.756;2023-02-11T08:57:44;19.15;;;6.10;;
35646;SDS011;28680;45.642;13.756;2023-02-11T09:00:10;11.90;;;6.68;;
35646;SDS011;28680;45.642;13.756;2023-02-11T09:02:36;11.18;;;5.82;;
35646;SDS011;28680;45.642;13.756;2023-02-11T09:05:02;10.25;;;5.43;;
35646;SDS011;28680;45.642;13.756;2023-02-11T09:07:28;10.40;;;5.50;;
35646;SDS011;28680;45.642;13.756;2023-02-11T09:09:54;12.23;;;6.45;;
35646;SDS011;28680;45.642;13.756;2023-02-11T09:12:20;9.25;;;5.57;;
35646;SDS011;28680;45.642;13.756;2023-02-11T09:14:46;11.27;;;5.90;;
35646;SDS011;28680;45.642;13.756;2023-02-11T09:17:12;8.23;;;5.25;;
35646;SDS011;28680;45.642;13.756;2023-02-11T09:19:37;12.15;;;7.13;;
35646;SDS011;28680;45.642;13.756;2023-02-11T09:22:03;11.98;;;6.53;;
35646;SDS011;28680;45.642;13.756;2023-02-11T09:24:29;12.13;;;6.25;;
35646;SDS011;28680;45.642;13.756;2023-02-11T09:26:55;12.13;;;6.85;;
35646;SDS011;28680;45.642;13.756;2023-02-11T09:29:21;13.05;;;7.75;;
35646;SDS011;28680;45.642;13.756;2023-02-11T09:31:47;12.45;;;6.45;;
35646;SDS011;28680;45.642;13.756;2023-02-11T09:34:13;12.52;;;6.20;;
35646;SDS011;28680;45.642;13.756;2023-02-11T09:36:40;10.23;;;5.95;;
35646;SDS011;28680;45.642;13.756;2023-02-11T09:39:07;11.70;;;6.13;;
35646;SDS011;28680;45.642;13.756;2023-02-11T09:47:24;10.48;;;6.10;;
35646;SDS011;28680;45.642;13.756;2023-02-11T09:50:02;12.00;;;6.80;;
35646;SDS011;28680;45.642;13.756;2023-02-11T09:52:46;11.43;;;6.15;;
35646;SDS011;28680;45.642;13.756;2023-02-11T09:55:24;11.15;;;5.97;;
35646;SDS011;28680;45.642;13.756;2023-02-11T09:58:24;11.05;;;5.75;;
35646;SDS011;28680;45.642;13.756;2023-02-11T10:07:20;10.75;;;6.00;;
35646;SDS011;28680;45.642;13.756;2023-02-11T10:13:29;11.05;;;5.65;;
35646;SDS011;28680;45.642;13.756;2023-02-11T10:22:17;11.15;;;6.35;;
35646;SDS011;28680;45.642;13.756;2023-02-11T10:24:50;10.52;;;5.97;;
35646;SDS011;28680;45.642;13.756;2023-02-11T10:27:26;11.23;;;6.53;;
35646;SDS011;28680;45.642;13.756;2023-02-11T10:30:00;11.50;;;6.20;;
35646;SDS011;28680;45.642;13.756;2023-02-11T10:32:46;11.07;;;5.38;;
35646;SDS011;28680;45.642;13.756;2023-02-11T10:35:42;10.88;;;5.95;;
35646;SDS011;28680;45.642;13.756;2023-02-11T10:38:09;12.23;;;6.95;;
35646;SDS011;28680;45.642;13.756;2023-02-11T10:40:36;9.60;;;5.95;;
35646;SDS011;28680;45.642;13.756;2023-02-11T10:43:05;12.77;;;5.90;;
35646;SDS011;28680;45.642;13.756;2023-02-11T10:51:15;8.80;;;5.40;;
35646;SDS011;28680;45.642;13.756;2023-02-11T10:56:36;8.20;;;4.90;;
35646;SDS011;28680;45.642;13.756;2023-02-11T10:59:28;11.20;;;5.88;;
35646;SDS011;28680;45.642;13.756;2023-02-11T11:02:01;12.07;;;6.13;;
35646;SDS011;28680;45.642;13.756;2023-02-11T11:04:47;9.32;;;5.60;;
35646;SDS011;28680;45.642;13.756;2023-02-11T11:07:18;9.82;;;6.03;;
35646;SDS011;28680;45.642;13.756;2023-02-11T11:12:49;11.13;;;5.80;;
35646;SDS011;28680;45.642;13.756;2023-02-11T11:15:18;9.48;;;5.95;;
35646;SDS011;28680;45.642;13.756;2023-02-11T11:20:43;11.57;;;6.18;;
35646;SDS011;28680;45.642;13.756;2023-02-11T11:23:38;10.70;;;5.82;;
35646;SDS011;28680;45.642;13.756;2023-02-11T11:26:11;11.35;;;6.22;;
35646;SDS011;28680;45.642;13.756;2023-02-11T11:32:02;10.77;;;6.13;;
35646;SDS011;28680;45.642;13.756;2023-02-11T11:34:53;8.55;;;5.72;;
35646;SDS011;28680;45.642;13.756;2023-02-11T11:40:25;11.30;;;6.22;;
35646;SDS011;28680;45.642;13.756;2023-02-11T11:52:44;9.85;;;5.30;;
35646;SDS011;28680;45.642;13.756;2023-02-11T11:59:13;10.00;;;5.30;;
35646;SDS011;28680;45.642;13.756;2023-02-11T12:05:02;11.48;;;5.93;;
35646;SDS011;28680;45.642;13.756;2023-02-11T12:07:51;10.77;;;6.00;;
35646;SDS011;28680;45.642;13.756;2023-02-11T12:11:01;9.02;;;5.20;;
35646;SDS011;28680;45.642;13.756;2023-02-11T12:14:05;12.57;;;6.30;;
35646;SDS011;28680;45.642;13.756;2023-02-11T12:37:06;9.40;;;5.75;;
35646;SDS011;28680;45.642;13.756;2023-02-11T12:59:09;8.70;;;5.28;;
35646;SDS011;28680;45.642;13.756;2023-02-11T13:01:51;7.25;;;4.53;;
35646;SDS011;28680;45.642;13.756;2023-02-11T13:04:26;8.15;;;5.63;;
35646;SDS011;28680;45.642;13.756;2023-02-11T13:07:04;8.18;;;5.80;;
35646;SDS011;28680;45.642;13.756;2023-02-11T13:09:42;8.70;;;6.15;;
35646;SDS011;28680;45.642;13.756;2023-02-11T13:12:21;8.30;;;5.63;;
35646;SDS011;28680;45.642;13.756;2023-02-11T13:15:12;8.98;;;5.53;;
35646;SDS011;28680;45.642;13.756;2023-02-11T13:17:44;10.63;;;6.38;;
35646;SDS011;28680;45.642;13.756;2023-02-11T13:20:54;9.18;;;5.82;;
35646;SDS011;28680;45.642;13.756;2023-02-11T13:37:53;11.25;;;6.53;;
35646;SDS011;28680;45.642;13.756;2023-02-11T13:40:24;11.27;;;6.72;;
35646;SDS011;28680;45.642;13.756;2023-02-11T13:42:55;12.65;;;7.65;;
35646;SDS011;28680;45.642;13.756;2023-02-11T13:45:30;11.10;;;7.43;;
35646;SDS011;28680;45.642;13.756;2023-02-11T13:51:02;11.63;;;7.55;;
35646;SDS011;28680;45.642;13.756;2023-02-11T13:58:59;11.18;;;7.53;;
35646;SDS011;28680;45.642;13.756;2023-02-11T14:04:31;15.07;;;8.20;;
35646;SDS011;28680;45.642;13.756;2023-02-11T14:07:29;12.57;;;8.40;;
35646;SDS011;28680;45.642;13.756;2023-02-11T14:11:40;14.00;;;8.40;;
35646;SDS011;28680;45.642;13.756;2023-02-11T14:13:24;13.07;;;8.38;;
35646;SDS011;28680;45.642;13.756;2023-02-11T14:16:05;15.23;;;8.85;;
35646;SDS011;28680;45.642;13.756;2023-02-11T14:37:33;13.73;;;8.20;;
35646;SDS011;28680;45.642;13.756;2023-02-11T14:40:28;13.60;;;8.40;;
35646;SDS011;28680;45.642;13.756;2023-02-11T14:43:43;13.85;;;8.60;;
35646;SDS011;28680;45.642;13.756;2023-02-11T14:46:17;14.70;;;8.88;;
35646;SDS011;28680;45.642;13.756;2023-02-11T14:48:49;16.33;;;9.48;;
35646;SDS011;28680;45.642;13.756;2023-02-11T14:53:57;14.40;;;9.25;;
35646;SDS011;28680;45.642;13.756;2023-02-11T14:59:52;13.73;;;8.60;;
35646;SDS011;28680;45.642;13.756;2023-02-11T15:02:32;13.38;;;8.73;;
35646;SDS011;28680;45.642;13.756;2023-02-11T15:05:18;13.55;;;8.77;;
35646;SDS011;28680;45.642;13.756;2023-02-11T17:31:40;20.13;;;10.82;;
35646;SDS011;28680;45.642;13.756;2023-02-11T17:34:09;21.25;;;10.75;;
35646;SDS011;28680;45.642;13.756;2023-02-11T17:36:36;21.10;;;11.38;;
35646;SDS011;28680;45.642;13.756;2023-02-11T17:39:02;28.05;;;12.65;;
35646;SDS011;28680;45.642;13.756;2023-02-11T17:41:29;27.35;;;14.63;;
35646;SDS011;28680;45.642;13.756;2023-02-11T17:44:06;23.08;;;11.65;;
35646;SDS011;28680;45.642;13.756;2023-02-11T17:46:34;22.75;;;12.57;;
35646;SDS011;28680;45.642;13.756;2023-02-11T17:49:07;21.67;;;12.68;;
35646;SDS011;28680;45.642;13.756;2023-02-11T17:52:30;23.90;;;12.48;;
35646;SDS011;28680;45.642;13.756;2023-02-11T17:54:55;23.98;;;13.07;;
35646;SDS011;28680;45.642;13.756;2023-02-11T17:57:22;24.85;;;12.77;;
35646;SDS011;28680;45.642;13.756;2023-02-11T17:59:48;23.23;;;12.82;;
35646;SDS011;28680;45.642;13.756;2023-02-11T18:02:40;26.58;;;13.35;;
35646;SDS011;28680;45.642;13.756;2023-02-11T18:05:06;28.25;;;13.70;;
35646;SDS011;28680;45.642;13.756;2023-02-11T18:10:21;30.98;;;14.18;;
35646;SDS011;28680;45.642;13.756;2023-02-11T18:12:50;24.23;;;12.85;;
35646;SDS011;28680;45.642;13.756;2023-02-11T18:15:16;25.10;;;13.45;;
35646;SDS011;28680;45.642;13.756;2023-02-11T18:17:42;25.00;;;14.10;;
35646;SDS011;28680;45.642;13.756;2023-02-11T18:20:08;23.88;;;13.10;;
35646;SDS011;28680;45.642;13.756;2023-02-11T18:30:41;26.33;;;15.15;;
35646;SDS011;28680;45.642;13.756;2023-02-11T18:33:07;29.45;;;16.35;;
35646;SDS011;28680;45.642;13.756;2023-02-11T18:35:39;31.20;;;16.27;;
35646;SDS011;28680;45.642;13.756;2023-02-11T18:38:06;31.13;;;16.30;;
35646;SDS011;28680;45.642;13.756;2023-02-11T18:40:33;34.20;;;14.95;;
35646;SDS011;28680;45.642;13.756;2023-02-11T18:43:05;31.63;;;15.52;;
35646;SDS011;28680;45.642;13.756;2023-02-11T18:45:31;29.80;;;15.23;;
35646;SDS011;28680;45.642;13.756;2023-02-11T18:47:58;31.45;;;14.70;;
35646;SDS011;28680;45.642;13.756;2023-02-11T18:50:30;26.90;;;12.88;;
35646;SDS011;28680;45.642;13.756;2023-02-11T18:52:56;25.13;;;12.93;;
35646;SDS011;28680;45.642;13.756;2023-02-11T18:55:31;27.15;;;13.18;;
35646;SDS011;28680;45.642;13.756;2023-02-11T18:58:06;28.48;;;13.25;;
35646;SDS011;28680;45.642;13.756;2023-02-11T19:00:33;28.02;;;12.80;;
35646;SDS011;28680;45.642;13.756;2023-02-11T19:02:59;24.38;;;12.82;;
35646;SDS011;28680;45.642;13.756;2023-02-11T19:05:26;24.02;;;12.73;;
35646;SDS011;28680;45.642;13.756;2023-02-11T19:08:00;27.58;;;12.45;;
35646;SDS011;28680;45.642;13.756;2023-02-11T19:10:26;27.88;;;12.75;;
35646;SDS011;28680;45.642;13.756;2023-02-11T19:12:55;27.00;;;12.48;;
35646;SDS011;28680;45.642;13.756;2023-02-11T19:15:23;24.92;;;12.95;;
35646;SDS011;28680;45.642;13.756;2023-02-11T19:17:49;29.27;;;14.18;;
35646;SDS011;28680;45.642;13.756;2023-02-11T19:20:31;25.63;;;13.63;;
35646;SDS011;28680;45.642;13.756;2023-02-11T19:22:57;28.15;;;13.60;;
35646;SDS011;28680;45.642;13.756;2023-02-11T19:25:24;29.60;;;14.70;;
35646;SDS011;28680;45.642;13.756;2023-02-11T19:27:54;25.85;;;13.38;;
35646;SDS011;28680;45.642;13.756;2023-02-11T19:30:21;24.20;;;13.73;;
35646;SDS011;28680;45.642;13.756;2023-02-11T19:33:08;25.75;;;13.93;;
35646;SDS011;28680;45.642;13.756;2023-02-11T19:35:34;26.27;;;14.10;;
35646;SDS011;28680;45.642;13.756;2023-02-11T19:41:00;27.80;;;14.43;;
35646;SDS011;28680;45.642;13.756;2023-02-11T19:43:26;27.75;;;15.35;;
35646;SDS011;28680;45.642;13.756;2023-02-11T19:45:52;29.08;;;13.73;;
35646;SDS011;28680;45.642;13.756;2023-02-11T19:48:23;25.63;;;13.73;;
35646;SDS011;28680;45.642;13.756;2023-02-11T19:50:49;28.40;;;14.63;;
35646;SDS011;28680;45.642;13.756;2023-02-11T19:56:26;29.58;;;13.18;;
35646;SDS011;28680;45.642;13.756;2023-02-11T19:58:53;35.28;;;16.17;;
35646;SDS011;28680;45.642;13.756;2023-02-11T20:01:20;28.65;;;15.05;;
35646;SDS011;28680;45.642;13.756;2023-02-11T20:03:50;31.10;;;17.00;;
35646;SDS011;28680;45.642;13.756;2023-02-11T20:06:19;35.65;;;17.67;;
35646;SDS011;28680;45.642;13.756;2023-02-11T20:08:52;31.45;;;17.65;;
35646;SDS011;28680;45.642;13.756;2023-02-11T20:11:46;34.05;;;17.50;;
35646;SDS011;28680;45.642;13.756;2023-02-11T20:14:13;32.50;;;17.73;;
35646;SDS011;28680;45.642;13.756;2023-02-11T20:16:39;36.58;;;17.83;;
35646;SDS011;28680;45.642;13.756;2023-02-11T20:19:06;32.28;;;17.58;;
35646;SDS011;28680;45.642;13.756;2023-02-11T20:21:32;31.98;;;17.25;;
35646;SDS011;28680;45.642;13.756;2023-02-11T20:26:43;34.38;;;17.63;;
35646;SDS011;28680;45.642;13.756;2023-02-11T20:32:33;34.17;;;18.33;;
35646;SDS011;28680;45.642;13.756;2023-02-11T20:35:02;34.63;;;17.70;;
35646;SDS011;28680;45.642;13.756;2023-02-11T21:00:11;39.75;;;18.95;;
35646;SDS011;28680;45.642;13.756;2023-02-11T21:02:37;37.58;;;19.02;;
35646;SDS011;28680;45.642;13.756;2023-02-11T21:05:03;42.00;;;18.88;;
35646;SDS011;28680;45.642;13.756;2023-02-11T21:07:32;35.28;;;19.25;;
35646;SDS011;28680;45.642;13.756;2023-02-11T21:09:58;42.15;;;19.63;;
35646;SDS011;28680;45.642;13.756;2023-02-11T21:16:15;39.03;;;19.67;;
35646;SDS011;28680;45.642;13.756;2023-02-11T21:19:06;39.47;;;20.30;;
35646;SDS011;28680;45.642;13.756;2023-02-11T21:22:45;37.33;;;19.23;;
35646;SDS011;28680;45.642;13.756;2023-02-11T21:25:14;38.88;;;20.75;;
35646;SDS011;28680;45.642;13.756;2023-02-11T21:27:40;35.88;;;19.80;;
35646;SDS011;28680;45.642;13.756;2023-02-11T21:33:36;34.22;;;18.05;;
35646;SDS011;28680;45.642;13.756;2023-02-11T21:39:17;36.08;;;17.35;;
35646;SDS011;28680;45.642;13.756;2023-02-11T21:41:44;35.13;;;16.40;;
35646;SDS011;28680;45.642;13.756;2023-02-11T21:51:37;31.65;;;17.10;;
35646;SDS011;28680;45.642;13.756;2023-02-11T22:04:46;35.90;;;17.13;;
35646;SDS011;28680;45.642;13.756;2023-02-11T22:07:27;32.28;;;17.45;;
35646;SDS011;28680;45.642;13.756;2023-02-11T22:12:42;36.15;;;18.00;;